createdAt,value
2019-05-19T00:02:02.400Z,14.43
2019-05-19T00:04:31.920Z,14.38
2019-05-19T00:07:02.507Z,14.37
2019-05-19T00:09:31.969Z,14.36
2019-05-19T00:12:01.989Z,14.33
2019-05-19T00:14:33.116Z,14.37
2019-05-19T00:17:02.449Z,14.37
2019-05-19T00:19:32.526Z,14.33
2019-05-19T00:22:02.494Z,14.29
2019-05-19T00:24:31.768Z,14.26
2019-05-19T00:27:01.606Z,14.26
2019-05-19T00:29:31.061Z,14.27
2019-05-19T00:32:00.664Z,14.33
2019-05-19T00:34:29.969Z,14.37
2019-05-19T00:36:59.261Z,14.44
2019-05-19T00:39:29.423Z,14.41
2019-05-19T00:41:59.342Z,14.40
2019-05-19T00:44:28.726Z,14.36
2019-05-19T00:46:58.464Z,14.36
2019-05-19T00:49:40.653Z,14.40
2019-05-19T00:51:59.036Z,14.46
2019-05-19T00:54:28.517Z,14.56
2019-05-19T00:56:59.964Z,14.69
2019-05-19T00:59:30.463Z,14.70
2019-05-19T01:02:00.318Z,14.69
2019-05-19T01:04:30.077Z,14.71
2019-05-19T01:06:59.633Z,14.67
2019-05-19T01:09:29.233Z,14.65
2019-05-19T01:11:58.499Z,14.80
2019-05-19T01:14:28.170Z,14.80
2019-05-19T01:16:58.408Z,14.81
2019-05-19T01:19:27.801Z,14.75
2019-05-19T01:22:00.073Z,14.84
2019-05-19T01:24:29.494Z,14.83
2019-05-19T01:26:59.619Z,14.78
2019-05-19T01:29:29.011Z,14.72
2019-05-19T01:31:59.024Z,14.77
2019-05-19T01:34:28.447Z,14.61
2019-05-19T01:36:57.914Z,14.64
2019-05-19T01:39:28.894Z,14.67
2019-05-19T01:41:58.652Z,14.67
2019-05-19T01:44:28.218Z,14.68
2019-05-19T01:46:58.314Z,14.65
2019-05-19T01:49:27.947Z,14.54
2019-05-19T01:52:04.158Z,14.57
2019-05-19T01:54:34.680Z,14.44
2019-05-19T01:57:04.115Z,14.40
2019-05-19T01:59:33.383Z,14.32
2019-05-19T02:02:03.662Z,14.33
2019-05-19T02:04:33.367Z,14.29
2019-05-19T02:07:02.958Z,14.23
2019-05-19T02:09:32.276Z,14.13
2019-05-19T02:12:02.656Z,14.04
2019-05-19T02:14:32.358Z,13.99
2019-05-19T02:17:02.299Z,13.96
2019-05-19T02:19:32.249Z,13.91
2019-05-19T02:22:01.818Z,13.88
2019-05-19T02:24:31.186Z,13.86
2019-05-19T02:27:01.734Z,13.80
2019-05-19T02:29:31.510Z,13.77
2019-05-19T02:32:01.190Z,13.72
2019-05-19T02:34:32.860Z,13.67
2019-05-19T02:37:02.991Z,13.61
2019-05-19T02:39:32.523Z,13.52
2019-05-19T02:42:04.765Z,13.41
2019-05-19T02:44:36.870Z,13.31
2019-05-19T02:47:07.295Z,13.13
2019-05-19T02:49:37.949Z,12.99
2019-05-19T02:52:08.219Z,12.85
2019-05-19T02:54:38.685Z,12.77
2019-05-19T02:57:08.937Z,12.67
2019-05-19T02:59:39.371Z,12.56
2019-05-19T03:02:12.317Z,12.46
2019-05-19T03:04:42.066Z,12.36
2019-05-19T03:07:12.623Z,12.33
2019-05-19T03:09:43.152Z,12.33
2019-05-19T03:12:12.764Z,12.32
2019-05-19T03:14:42.845Z,12.31
2019-05-19T03:17:12.747Z,12.25
2019-05-19T03:19:42.487Z,12.21
2019-05-19T03:22:12.061Z,12.17
2019-05-19T03:24:41.640Z,12.19
2019-05-19T03:27:11.453Z,12.22
2019-05-19T03:29:45.378Z,12.22
2019-05-19T03:32:27.698Z,12.24
2019-05-19T03:34:57.365Z,12.29
2019-05-19T03:37:26.789Z,12.31
2019-05-19T03:39:56.360Z,12.34
2019-05-19T03:42:25.880Z,12.43
2019-05-19T03:44:55.458Z,12.48
2019-05-19T03:47:25.485Z,12.63
2019-05-19T03:49:55.056Z,12.72
2019-05-19T03:52:25.531Z,13.10
2019-05-19T03:54:55.521Z,13.73
2019-05-19T03:57:25.500Z,14.41
2019-05-19T03:59:55.096Z,14.97
2019-05-19T04:02:24.516Z,15.39
2019-05-19T04:04:54.019Z,15.77
2019-05-19T04:07:24.847Z,16.10
2019-05-19T04:09:54.415Z,16.43
2019-05-19T04:12:24.394Z,16.88
2019-05-19T04:14:54.089Z,17.02
2019-05-19T04:17:23.656Z,17.24
2019-05-19T04:19:53.520Z,17.39
2019-05-19T04:22:23.161Z,17.83
2019-05-19T04:24:53.790Z,18.09
2019-05-19T04:27:23.773Z,18.36
2019-05-19T04:29:56.237Z,18.74
2019-05-19T04:32:25.782Z,19.32
2019-05-19T04:34:55.737Z,19.97
2019-05-19T04:37:25.891Z,20.62
2019-05-19T04:39:55.656Z,20.90
2019-05-19T04:42:25.071Z,21.03
2019-05-19T04:44:54.402Z,21.06
2019-05-19T04:47:24.700Z,21.22
2019-05-19T04:49:54.818Z,21.44
2019-05-19T04:52:24.637Z,21.60
2019-05-19T04:54:54.235Z,21.61
2019-05-19T04:57:23.888Z,21.83
2019-05-19T04:59:53.305Z,21.66
2019-05-19T05:02:22.526Z,21.84
2019-05-19T05:04:52.546Z,22.15
2019-05-19T05:07:22.293Z,22.68
2019-05-19T05:09:52.431Z,22.64
2019-05-19T05:12:22.285Z,22.84
2019-05-19T05:14:51.641Z,22.33
2019-05-19T05:17:21.391Z,22.37
2019-05-19T05:19:51.153Z,22.52
2019-05-19T05:22:22.377Z,22.32
2019-05-19T05:24:52.269Z,22.99
2019-05-19T05:27:21.632Z,22.81
2019-05-19T05:29:51.116Z,23.14
2019-05-19T05:32:20.794Z,23.26
2019-05-19T05:34:50.533Z,23.53
2019-05-19T05:37:20.184Z,23.53
2019-05-19T05:39:50.142Z,23.43
2019-05-19T05:42:19.487Z,23.71
2019-05-19T05:44:49.861Z,23.94
2019-05-19T05:47:19.291Z,24.30
2019-05-19T05:49:50.310Z,23.95
2019-05-19T05:52:19.789Z,24.43
2019-05-19T05:54:49.558Z,24.67
2019-05-19T05:57:19.435Z,24.61
2019-05-19T05:59:48.692Z,24.45
2019-05-19T06:02:19.407Z,23.87
2019-05-19T06:04:49.234Z,23.90
2019-05-19T06:07:19.119Z,23.76
2019-05-19T06:09:48.316Z,23.76
2019-05-19T06:12:18.728Z,23.67
2019-05-19T06:14:47.879Z,24.06
2019-05-19T06:17:17.836Z,24.64
2019-05-19T06:19:48.154Z,24.20
2019-05-19T06:22:18.977Z,24.91
2019-05-19T06:24:48.178Z,24.69
2019-05-19T06:27:20.509Z,25.18
2019-05-19T06:29:51.885Z,25.66
2019-05-19T06:32:31.356Z,25.46
2019-05-19T06:35:03.011Z,25.41
2019-05-19T06:37:33.058Z,25.45
2019-05-19T06:40:02.394Z,25.84
2019-05-19T06:42:31.708Z,25.20
2019-05-19T06:45:04.499Z,24.99
2019-05-19T06:47:35.291Z,25.12
2019-05-19T06:50:07.869Z,25.90
2019-05-19T06:52:37.550Z,26.25
2019-05-19T06:55:07.939Z,26.91
2019-05-19T06:57:37.404Z,27.34
2019-05-19T07:00:09.161Z,26.41
2019-05-19T07:02:40.763Z,26.62
2019-05-19T07:05:10.362Z,27.60
2019-05-19T07:07:39.768Z,27.55
2019-05-19T07:10:10.684Z,27.36
2019-05-19T07:12:40.370Z,27.41
2019-05-19T07:15:10.853Z,28.27
2019-05-19T07:17:40.379Z,28.41
2019-05-19T07:20:12.958Z,28.34
2019-05-19T07:22:42.792Z,28.21
2019-05-19T07:25:12.122Z,27.98
2019-05-19T07:27:41.646Z,28.02
2019-05-19T07:30:10.965Z,28.27
2019-05-19T07:32:40.743Z,28.02
2019-05-19T07:35:10.478Z,27.76
2019-05-19T07:37:40.049Z,27.92
2019-05-19T07:40:10.462Z,27.65
2019-05-19T07:42:39.749Z,28.36
2019-05-19T07:45:11.270Z,27.89
2019-05-19T07:47:41.292Z,28.75
2019-05-19T07:50:10.490Z,28.75
2019-05-19T07:52:39.737Z,29.19
2019-05-19T07:55:09.360Z,29.63
2019-05-19T07:57:38.653Z,29.68
2019-05-19T08:00:08.712Z,29.23
2019-05-19T08:02:38.832Z,29.23
2019-05-19T08:05:08.280Z,29.27
2019-05-19T08:07:38.238Z,28.11
2019-05-19T08:10:08.393Z,26.79
2019-05-19T08:12:38.410Z,26.85
2019-05-19T08:15:09.007Z,27.18
2019-05-19T08:17:38.780Z,27.09
2019-05-19T08:20:10.124Z,27.17
2019-05-19T08:22:40.441Z,27.53
2019-05-19T08:25:10.806Z,27.50
2019-05-19T08:27:40.527Z,28.04
2019-05-19T08:30:11.034Z,28.42
2019-05-19T08:32:40.809Z,27.85
2019-05-19T08:35:10.429Z,27.28
2019-05-19T08:37:40.533Z,27.68
2019-05-19T08:40:10.129Z,28.57
2019-05-19T08:42:39.954Z,28.44
2019-05-19T08:45:09.868Z,28.00
2019-05-19T08:47:39.180Z,27.51
2019-05-19T08:50:09.613Z,27.03
2019-05-19T08:52:38.943Z,26.32
2019-05-19T08:55:09.094Z,25.72
2019-05-19T08:57:38.775Z,25.38
2019-05-19T09:00:16.201Z,25.69
2019-05-19T09:02:45.534Z,26.61
2019-05-19T09:05:15.701Z,27.31
2019-05-19T09:07:44.947Z,26.84
2019-05-19T09:10:14.628Z,26.97
2019-05-19T09:12:44.452Z,28.46
2019-05-19T09:15:13.868Z,28.43
2019-05-19T09:17:43.459Z,28.02
2019-05-19T09:20:13.419Z,28.81
2019-05-19T09:22:42.883Z,28.84
2019-05-19T09:25:14.880Z,28.44
2019-05-19T09:27:44.336Z,27.48
2019-05-19T09:30:14.781Z,28.64
2019-05-19T09:32:44.370Z,28.84
2019-05-19T09:35:14.190Z,29.21
2019-05-19T09:37:44.265Z,29.73
2019-05-19T09:40:14.688Z,29.17
2019-05-19T09:42:44.455Z,29.63
2019-05-19T09:45:14.750Z,30.23
2019-05-19T09:47:45.022Z,29.78
2019-05-19T09:50:14.600Z,29.14
2019-05-19T09:52:43.972Z,29.18
2019-05-19T09:55:13.907Z,29.27
2019-05-19T09:57:52.397Z,28.37
2019-05-19T10:00:22.588Z,28.37
2019-05-19T10:02:57.566Z,29.21
2019-05-19T10:05:30.547Z,29.61
2019-05-19T10:08:00.026Z,29.54
2019-05-19T10:10:54.923Z,29.85
2019-05-19T10:13:24.330Z,31.11
2019-05-19T10:15:53.920Z,30.65
2019-05-19T10:18:23.170Z,29.58
2019-05-19T10:20:56.096Z,29.21
2019-05-19T10:23:25.296Z,28.81
2019-05-19T10:25:54.647Z,28.88
2019-05-19T10:28:24.276Z,28.68
2019-05-19T10:30:53.507Z,28.70
2019-05-19T10:33:22.823Z,28.29
2019-05-19T10:35:52.750Z,27.78
2019-05-19T10:38:22.234Z,27.82
2019-05-19T10:40:51.620Z,28.14
2019-05-19T10:43:21.826Z,28.31
2019-05-19T10:45:59.708Z,28.68
2019-05-19T10:48:29.158Z,29.11
2019-05-19T10:50:58.970Z,29.75
2019-05-19T10:53:28.584Z,28.81
2019-05-19T10:55:57.920Z,29.05
2019-05-19T10:58:27.766Z,29.06
2019-05-19T11:00:58.234Z,29.07
2019-05-19T11:03:27.543Z,29.77
2019-05-19T11:05:58.433Z,29.32
2019-05-19T11:08:27.742Z,28.31
2019-05-19T11:10:57.108Z,27.40
2019-05-19T11:13:26.354Z,27.18
2019-05-19T11:15:55.889Z,27.09
2019-05-19T11:18:25.315Z,27.68
2019-05-19T11:20:54.817Z,27.68
2019-05-19T11:23:24.571Z,28.19
2019-05-19T11:25:54.094Z,28.29
2019-05-19T11:28:23.820Z,28.18
2019-05-19T11:30:53.303Z,28.32
2019-05-19T11:33:22.694Z,28.62
2019-05-19T11:35:52.137Z,29.04
2019-05-19T11:38:21.891Z,29.30
2019-05-19T11:40:52.773Z,29.03
2019-05-19T11:43:22.661Z,28.85
2019-05-19T11:45:52.008Z,28.39
2019-05-19T11:48:22.355Z,28.46
2019-05-19T11:50:51.719Z,28.47
2019-05-19T11:53:21.435Z,28.16
2019-05-19T11:56:04.324Z,28.26
2019-05-19T11:58:24.870Z,27.85
2019-05-19T12:00:54.131Z,28.03
2019-05-19T12:03:23.778Z,28.30
2019-05-19T12:05:53.607Z,28.72
2019-05-19T12:08:23.063Z,28.89
2019-05-19T12:10:52.462Z,28.80
2019-05-19T12:13:22.700Z,28.34
2019-05-19T12:15:52.922Z,28.85
2019-05-19T12:18:22.552Z,28.78
2019-05-19T12:20:51.901Z,28.77
2019-05-19T12:23:21.300Z,29.24
2019-05-19T12:25:50.616Z,28.87
2019-05-19T12:28:20.232Z,28.81
2019-05-19T12:30:49.540Z,29.04
2019-05-19T12:33:19.588Z,29.27
2019-05-19T12:35:48.950Z,28.83
2019-05-19T12:38:18.268Z,28.49
2019-05-19T12:40:48.078Z,28.68
2019-05-19T12:43:17.342Z,28.77
2019-05-19T12:45:46.999Z,28.56
2019-05-19T12:48:16.345Z,28.61
2019-05-19T12:50:46.465Z,28.15
2019-05-19T12:53:16.139Z,27.41
2019-05-19T12:55:46.005Z,27.17
2019-05-19T12:58:15.827Z,26.78
2019-05-19T13:00:45.743Z,27.59
2019-05-19T13:03:15.109Z,27.59
2019-05-19T13:05:44.851Z,26.56
2019-05-19T13:08:15.060Z,26.53
2019-05-19T13:10:45.152Z,27.28
2019-05-19T13:13:14.411Z,27.87
2019-05-19T13:15:44.964Z,27.39
2019-05-19T13:18:14.338Z,27.83
2019-05-19T13:20:44.295Z,27.53
2019-05-19T13:23:13.713Z,27.93
2019-05-19T13:25:43.787Z,27.93
2019-05-19T13:28:13.796Z,28.08
2019-05-19T13:30:43.770Z,28.08
2019-05-19T13:33:13.775Z,28.34
2019-05-19T13:35:44.285Z,28.50
2019-05-19T13:38:13.561Z,28.48
2019-05-19T13:40:43.329Z,28.12
2019-05-19T13:43:13.084Z,28.11
2019-05-19T13:45:43.708Z,28.11
2019-05-19T13:48:13.936Z,28.35
2019-05-19T13:50:43.449Z,28.18
2019-05-19T13:53:12.756Z,27.91
2019-05-19T13:55:44.026Z,28.21
2019-05-19T13:58:14.123Z,28.21
2019-05-19T14:00:43.550Z,28.09
2019-05-19T14:03:13.369Z,28.28
2019-05-19T14:05:42.812Z,28.19
2019-05-19T14:08:12.155Z,28.21
2019-05-19T14:10:41.802Z,28.29
2019-05-19T14:13:11.439Z,28.11
2019-05-19T14:15:41.582Z,28.06
2019-05-19T14:18:11.384Z,28.02
2019-05-19T14:20:40.742Z,27.94
2019-05-19T14:23:10.449Z,27.83
2019-05-19T14:25:40.232Z,28.14
2019-05-19T14:28:09.581Z,28.14
2019-05-19T14:30:38.966Z,28.16
2019-05-19T14:33:08.308Z,28.35
2019-05-19T14:35:37.804Z,28.06
2019-05-19T14:38:07.097Z,28.06
2019-05-19T14:40:37.016Z,27.92
2019-05-19T14:43:06.349Z,27.95
2019-05-19T14:45:35.708Z,27.68
2019-05-19T14:48:05.466Z,27.29
2019-05-19T14:50:35.161Z,27.31
2019-05-19T14:53:04.487Z,27.43
2019-05-19T14:55:33.862Z,27.43
2019-05-19T14:58:04.581Z,26.98
2019-05-19T15:00:34.353Z,26.86
2019-05-19T15:03:04.024Z,26.65
2019-05-19T15:05:33.485Z,26.50
2019-05-19T15:08:03.029Z,26.88
2019-05-19T15:10:34.401Z,26.99
2019-05-19T15:13:04.137Z,26.97
2019-05-19T15:15:33.352Z,27.06
2019-05-19T15:18:03.434Z,27.28
2019-05-19T15:20:33.088Z,27.04
2019-05-19T15:23:02.432Z,27.13
2019-05-19T15:25:32.184Z,27.05
2019-05-19T15:28:05.263Z,27.38
2019-05-19T15:30:33.437Z,27.42
2019-05-19T15:33:02.765Z,27.05
2019-05-19T15:35:32.350Z,27.15
2019-05-19T15:38:02.852Z,27.22
2019-05-19T15:40:32.156Z,26.82
2019-05-19T15:43:01.498Z,26.57
2019-05-19T15:45:31.311Z,26.53
2019-05-19T15:48:01.165Z,26.39
2019-05-19T15:50:30.530Z,26.30
2019-05-19T15:53:00.198Z,26.21
2019-05-19T15:55:29.429Z,26.05
2019-05-19T15:58:15.254Z,26.04
2019-05-19T16:00:30.451Z,26.20
2019-05-19T16:03:00.180Z,26.40
2019-05-19T16:05:29.443Z,26.44
2019-05-19T16:07:58.805Z,26.60
2019-05-19T16:10:28.100Z,26.58
2019-05-19T16:12:57.453Z,26.66
2019-05-19T16:15:26.769Z,26.60
2019-05-19T16:17:56.038Z,26.77
2019-05-19T16:20:25.339Z,26.62
2019-05-19T16:22:56.133Z,26.58
2019-05-19T16:25:25.483Z,26.55
2019-05-19T16:27:55.903Z,26.53
2019-05-19T16:30:26.848Z,26.47
2019-05-19T16:32:56.441Z,26.50
2019-05-19T16:35:25.846Z,26.77
2019-05-19T16:37:55.618Z,26.68
2019-05-19T16:40:25.227Z,26.48
2019-05-19T16:42:54.499Z,26.48
2019-05-19T16:45:23.713Z,26.41
2019-05-19T16:47:53.335Z,26.45
2019-05-19T16:50:23.053Z,26.51
2019-05-19T16:52:53.255Z,26.60
2019-05-19T16:55:27.528Z,26.37
2019-05-19T16:57:57.274Z,26.49
2019-05-19T17:00:28.608Z,26.51
2019-05-19T17:02:58.037Z,26.54
2019-05-19T17:05:27.394Z,26.45
2019-05-19T17:07:57.712Z,26.46
2019-05-19T17:10:30.199Z,26.40
2019-05-19T17:12:59.831Z,26.80
2019-05-19T17:15:29.242Z,26.69
2019-05-19T17:17:58.851Z,26.69
2019-05-19T17:20:30.900Z,26.43
2019-05-19T17:23:00.534Z,26.22
2019-05-19T17:25:30.120Z,26.21
2019-05-19T17:27:59.827Z,26.24
2019-05-19T17:30:29.700Z,26.30
2019-05-19T17:32:59.764Z,26.03
2019-05-19T17:35:29.423Z,25.86
2019-05-19T17:37:59.042Z,25.86
2019-05-19T17:40:28.794Z,26.10
2019-05-19T17:42:58.441Z,25.99
2019-05-19T17:45:28.118Z,25.98
2019-05-19T17:48:09.051Z,26.00
2019-05-19T17:50:32.911Z,25.71
2019-05-19T17:53:02.608Z,25.55
2019-05-19T17:55:34.488Z,25.17
2019-05-19T17:58:04.799Z,25.12
2019-05-19T18:00:44.162Z,24.98
2019-05-19T18:03:13.842Z,24.93
2019-05-19T18:05:44.245Z,24.79
2019-05-19T18:08:13.974Z,24.85
2019-05-19T18:10:43.482Z,24.82
2019-05-19T18:13:13.697Z,24.76
2019-05-19T18:15:43.175Z,24.64
2019-05-19T18:18:12.904Z,24.63
2019-05-19T18:20:42.326Z,24.54
2019-05-19T18:23:12.092Z,24.54
2019-05-19T18:25:41.410Z,24.58
2019-05-19T18:28:10.909Z,24.76
2019-05-19T18:30:40.337Z,24.78
2019-05-19T18:33:10.679Z,24.75
2019-05-19T18:35:41.251Z,24.68
2019-05-19T18:38:10.946Z,24.52
2019-05-19T18:40:40.260Z,24.42
2019-05-19T18:43:09.680Z,24.35
2019-05-19T18:45:39.063Z,24.33
2019-05-19T18:48:08.619Z,24.23
2019-05-19T18:50:38.869Z,24.11
2019-05-19T18:53:08.915Z,23.97
2019-05-19T18:55:38.598Z,23.88
2019-05-19T18:58:09.044Z,23.73
2019-05-19T19:00:39.303Z,23.65
2019-05-19T19:03:10.941Z,23.61
2019-05-19T19:05:40.841Z,23.52
2019-05-19T19:08:10.507Z,23.39
2019-05-19T19:10:40.941Z,23.25
2019-05-19T19:13:10.473Z,23.05
2019-05-19T19:15:40.194Z,22.74
2019-05-19T19:18:10.136Z,22.48
2019-05-19T19:20:39.818Z,22.15
2019-05-19T19:23:09.139Z,21.86
2019-05-19T19:25:38.420Z,21.66
2019-05-19T19:28:08.470Z,21.53
2019-05-19T19:30:37.931Z,21.27
2019-05-19T19:33:07.239Z,21.08
2019-05-19T19:35:39.398Z,20.87
2019-05-19T19:38:07.598Z,20.87
2019-05-19T19:40:37.798Z,20.84
2019-05-19T19:43:07.549Z,20.72
2019-05-19T19:45:38.209Z,20.68
2019-05-19T19:48:07.716Z,20.69
2019-05-19T19:50:37.297Z,20.64
2019-05-19T19:53:06.589Z,20.59
2019-05-19T19:55:36.159Z,20.50
2019-05-19T19:58:05.515Z,20.44
2019-05-19T20:00:45.564Z,20.29
2019-05-19T20:03:15.349Z,20.18
2019-05-19T20:05:52.357Z,20.06
2019-05-19T20:08:22.379Z,20.04
2019-05-19T20:10:51.925Z,19.98
2019-05-19T20:13:21.702Z,19.98
2019-05-19T20:15:51.146Z,20.05
2019-05-19T20:18:20.751Z,20.03
2019-05-19T20:20:50.152Z,20.05
2019-05-19T20:23:19.471Z,20.01
2019-05-19T20:25:52.130Z,19.99
2019-05-19T20:28:22.207Z,19.98
2019-05-19T20:30:51.606Z,19.96
2019-05-19T20:33:21.401Z,19.90
2019-05-19T20:35:50.896Z,19.84
2019-05-19T20:38:20.285Z,19.71
2019-05-19T20:40:49.772Z,19.54
2019-05-19T20:43:20.184Z,19.33
2019-05-19T20:45:50.225Z,19.13
2019-05-19T20:48:20.584Z,18.99
2019-05-19T20:50:50.062Z,18.88
2019-05-19T20:53:19.446Z,18.80
2019-05-19T20:55:48.856Z,18.63
2019-05-19T20:58:18.587Z,18.48
2019-05-19T21:00:51.263Z,18.37
2019-05-19T21:03:19.187Z,18.36
2019-05-19T21:05:48.769Z,18.37
2019-05-19T21:08:18.730Z,18.40
2019-05-19T21:10:48.054Z,18.48
2019-05-19T21:13:17.264Z,18.59
2019-05-19T21:15:46.883Z,18.63
2019-05-19T21:18:16.142Z,18.69
2019-05-19T21:20:48.859Z,18.74
2019-05-19T21:23:17.266Z,18.70
2019-05-19T21:25:46.475Z,18.70
2019-05-19T21:28:16.398Z,18.67
2019-05-19T21:30:45.816Z,18.64
2019-05-19T21:33:15.085Z,18.60
2019-05-19T21:35:45.601Z,18.58
2019-05-19T21:38:14.941Z,18.72
2019-05-19T21:40:54.295Z,18.76
2019-05-19T21:43:33.323Z,18.79
2019-05-19T21:46:06.361Z,18.82
2019-05-19T21:48:35.307Z,18.83
2019-05-19T21:51:04.642Z,18.81
2019-05-19T21:53:35.146Z,18.75
2019-05-19T21:56:04.622Z,18.70
2019-05-19T21:58:34.783Z,18.70
2019-05-19T22:01:04.451Z,18.71
2019-05-19T22:03:33.821Z,18.67
2019-05-19T22:06:03.654Z,18.64
2019-05-19T22:08:34.171Z,18.53
2019-05-19T22:11:04.606Z,18.62
2019-05-19T22:13:34.291Z,18.71
2019-05-19T22:16:12.332Z,18.59
2019-05-19T22:18:35.188Z,18.56
2019-05-19T22:21:04.634Z,18.49
2019-05-19T22:23:33.913Z,18.44
2019-05-19T22:26:03.791Z,18.39
2019-05-19T22:28:33.245Z,18.30
2019-05-19T22:31:02.582Z,18.30
2019-05-19T22:33:32.007Z,18.29
2019-05-19T22:36:01.899Z,18.37
2019-05-19T22:38:31.266Z,18.31
2019-05-19T22:41:00.903Z,18.41
2019-05-19T22:43:30.147Z,18.44
2019-05-19T22:45:59.473Z,18.61
2019-05-19T22:48:29.495Z,18.53
2019-05-19T22:50:59.035Z,18.50
2019-05-19T22:53:32.444Z,18.49
2019-05-19T22:56:00.631Z,18.58
2019-05-19T22:58:33.066Z,18.67
2019-05-19T23:01:02.446Z,18.62
2019-05-19T23:07:00.727Z,18.81
2019-05-19T23:09:30.336Z,18.52
2019-05-19T23:11:59.760Z,18.62
2019-05-19T23:14:29.293Z,18.56
2019-05-19T23:16:58.961Z,18.61
2019-05-19T23:19:28.685Z,18.50
2019-05-19T23:21:58.328Z,18.41
2019-05-19T23:24:28.269Z,18.38
2019-05-19T23:26:57.638Z,18.28
2019-05-19T23:29:27.102Z,18.25
2019-05-19T23:32:06.891Z,18.32
2019-05-19T23:34:27.985Z,18.35
2019-05-19T23:36:57.313Z,18.33
2019-05-19T23:39:27.054Z,18.47
2019-05-19T23:41:56.781Z,18.43
2019-05-19T23:44:28.199Z,18.47
2019-05-19T23:46:57.818Z,18.46
2019-05-19T23:49:27.244Z,18.53
2019-05-19T23:51:57.073Z,18.56
2019-05-19T23:54:26.643Z,18.63
2019-05-19T23:56:56.347Z,18.49
2019-05-19T23:59:26.290Z,18.38
